createdAt,value
2022-10-17T04:01:04.757Z,10.40
2022-10-17T04:02:04.963Z,10.41
2022-10-17T04:03:04.554Z,10.41
2022-10-17T04:04:04.703Z,10.38
2022-10-17T04:05:04.548Z,10.33
2022-10-17T04:06:04.863Z,10.30
2022-10-17T04:07:04.551Z,10.27
2022-10-17T04:08:05.019Z,10.25
2022-10-17T04:09:04.520Z,10.23
2022-10-17T04:10:04.443Z,10.26
2022-10-17T04:11:04.450Z,10.26
2022-10-17T04:12:04.411Z,10.26
2022-10-17T04:13:04.394Z,10.26
2022-10-17T04:14:04.361Z,10.26
2022-10-17T04:15:04.492Z,10.23
2022-10-17T04:16:04.541Z,10.26
2022-10-17T04:17:11.351Z,10.26
2022-10-17T04:19:04.283Z,10.29
2022-10-17T04:20:04.269Z,10.30
2022-10-17T04:21:04.319Z,10.30
2022-10-17T04:22:04.250Z,10.33
2022-10-17T04:23:04.233Z,10.33
2022-10-17T04:24:04.228Z,10.34
2022-10-17T04:25:04.225Z,10.34
2022-10-17T04:26:04.200Z,10.34
2022-10-17T04:27:04.241Z,10.33
2022-10-17T04:28:04.178Z,10.30
2022-10-17T04:29:04.937Z,10.27
2022-10-17T04:30:04.219Z,10.26
2022-10-17T04:31:04.225Z,10.25
2022-10-17T04:32:04.137Z,10.22
2022-10-17T04:33:04.168Z,10.22
2022-10-17T04:34:04.095Z,10.18
2022-10-17T04:35:04.076Z,10.15
2022-10-17T04:36:04.066Z,10.12
2022-10-17T04:37:04.055Z,10.11
2022-10-17T04:38:04.044Z,10.07
2022-10-17T04:39:04.143Z,10.04
2022-10-17T04:40:04.028Z,9.97
2022-10-17T04:41:04.007Z,9.93
2022-10-17T04:42:03.997Z,9.87
2022-10-17T04:43:03.974Z,9.83
2022-10-17T04:44:03.963Z,9.78
2022-10-17T04:45:03.993Z,9.72
2022-10-17T04:46:03.935Z,9.68
2022-10-17T04:47:03.927Z,9.68
2022-10-17T04:48:03.913Z,9.66
2022-10-17T04:49:03.912Z,9.60
2022-10-17T04:50:03.886Z,9.57
2022-10-17T04:51:03.931Z,9.57
2022-10-17T04:52:03.852Z,9.54
2022-10-17T04:53:03.841Z,9.50
2022-10-17T04:54:03.831Z,9.48
2022-10-17T04:55:03.824Z,9.50
2022-10-17T04:56:03.820Z,9.53
2022-10-17T04:57:03.835Z,9.54
2022-10-17T04:58:03.796Z,9.56
2022-10-17T04:59:03.770Z,9.54
2022-10-17T05:00:03.803Z,9.51
2022-10-17T05:01:03.808Z,9.51
2022-10-17T05:02:03.729Z,9.50
2022-10-17T05:03:03.757Z,9.50
2022-10-17T05:04:03.729Z,9.51
2022-10-17T05:05:03.689Z,9.53
2022-10-17T05:06:03.690Z,9.54
2022-10-17T05:07:03.668Z,9.56
2022-10-17T05:08:03.652Z,9.54
2022-10-17T05:09:03.705Z,9.53
2022-10-17T05:10:03.638Z,9.50
2022-10-17T05:11:03.638Z,9.46
2022-10-17T05:12:05.453Z,9.42
2022-10-17T05:13:03.596Z,9.40
2022-10-17T05:14:03.574Z,9.39
2022-10-17T05:15:03.707Z,9.36
2022-10-17T05:16:03.548Z,9.38
2022-10-17T05:17:03.532Z,9.36
2022-10-17T05:18:03.530Z,9.38
2022-10-17T05:19:03.509Z,9.38
2022-10-17T05:20:03.504Z,9.39
2022-10-17T05:21:03.536Z,9.42
2022-10-17T05:22:03.481Z,9.42
2022-10-17T05:23:03.462Z,9.40
2022-10-17T05:24:03.446Z,9.39
2022-10-17T05:25:03.423Z,9.40
2022-10-17T05:26:03.424Z,9.40
2022-10-17T05:27:03.463Z,9.42
2022-10-17T05:28:03.388Z,9.46
2022-10-17T05:29:03.426Z,9.48
2022-10-17T05:30:03.379Z,9.53
2022-10-17T05:31:03.364Z,9.58
2022-10-17T05:32:03.367Z,9.61
2022-10-17T05:33:03.363Z,9.61
2022-10-17T05:34:03.331Z,9.61
2022-10-17T05:35:03.301Z,9.65
2022-10-17T05:36:03.317Z,9.68
2022-10-17T05:37:03.270Z,9.68
2022-10-17T05:38:03.260Z,9.71
2022-10-17T05:39:03.309Z,9.72
2022-10-17T05:40:03.239Z,9.74
2022-10-17T05:41:03.277Z,9.71
2022-10-17T05:42:03.212Z,9.69
2022-10-17T05:43:03.190Z,9.64
2022-10-17T05:44:05.461Z,9.58
2022-10-17T05:45:03.242Z,9.58
2022-10-17T05:46:03.158Z,9.60
2022-10-17T05:47:03.189Z,9.60
2022-10-17T05:48:03.133Z,9.64
2022-10-17T05:49:10.694Z,9.68
2022-10-17T05:50:04.136Z,9.72
2022-10-17T05:51:03.089Z,9.75
2022-10-17T05:52:03.080Z,9.76
2022-10-17T05:53:03.059Z,9.76
2022-10-17T05:54:03.053Z,9.75
2022-10-17T05:55:03.086Z,9.74
2022-10-17T05:56:03.034Z,9.72
2022-10-17T05:57:03.026Z,9.74
2022-10-17T05:58:03.013Z,9.72
2022-10-17T05:59:02.976Z,9.72
2022-10-17T06:00:02.985Z,9.69
2022-10-17T06:01:03.005Z,9.71
2022-10-17T06:02:03.037Z,9.66
2022-10-17T06:03:02.941Z,9.69
2022-10-17T06:04:02.924Z,9.72
2022-10-17T06:05:02.916Z,9.76
2022-10-17T06:06:02.895Z,9.79
2022-10-17T06:07:02.933Z,9.83
2022-10-17T06:08:02.873Z,9.84
2022-10-17T06:09:02.900Z,9.86
2022-10-17T06:10:02.854Z,9.87
2022-10-17T06:11:06.070Z,9.90
2022-10-17T06:12:03.949Z,9.91
2022-10-17T06:13:02.805Z,9.93
2022-10-17T06:14:02.792Z,9.97
2022-10-17T06:15:02.794Z,10.04
2022-10-17T06:16:02.780Z,10.14
2022-10-17T06:17:02.761Z,10.29
2022-10-17T06:18:02.798Z,10.42
2022-10-17T06:19:02.723Z,10.60
2022-10-17T06:20:02.721Z,10.73
2022-10-17T06:21:02.700Z,10.82
2022-10-17T06:22:02.702Z,10.91
2022-10-17T06:23:02.677Z,11.03
2022-10-17T06:24:02.691Z,11.11
2022-10-17T06:25:02.706Z,11.14
2022-10-17T06:26:02.647Z,11.11
2022-10-17T06:27:02.627Z,11.18
2022-10-17T06:28:02.619Z,11.18
2022-10-17T06:29:02.740Z,11.19
2022-10-17T06:30:02.604Z,11.27
2022-10-17T06:31:02.756Z,11.33
2022-10-17T06:32:02.589Z,11.37
2022-10-17T06:33:02.555Z,11.51
2022-10-17T06:34:02.546Z,11.58
2022-10-17T06:35:02.527Z,11.61
2022-10-17T06:36:02.509Z,11.62
2022-10-17T06:37:02.566Z,11.60
2022-10-17T06:38:02.487Z,11.64
2022-10-17T06:39:02.513Z,11.73
2022-10-17T06:40:02.499Z,11.91
2022-10-17T06:41:02.456Z,12.12
2022-10-17T06:42:02.437Z,12.37
2022-10-17T06:43:02.638Z,12.65
2022-10-17T06:44:02.421Z,12.97
2022-10-17T06:45:02.396Z,13.23
2022-10-17T06:46:02.389Z,13.28
2022-10-17T06:47:02.373Z,13.36
2022-10-17T06:48:02.355Z,13.22
2022-10-17T06:49:02.404Z,13.10
2022-10-17T06:50:02.334Z,13.07
2022-10-17T06:51:02.314Z,12.97
2022-10-17T06:52:02.488Z,13.05
2022-10-17T06:53:02.289Z,13.22
2022-10-17T06:54:02.274Z,13.36
2022-10-17T06:56:02.250Z,13.70
2022-10-17T06:57:02.234Z,13.85
2022-10-17T06:58:02.259Z,13.79
2022-10-17T06:59:02.212Z,13.95
2022-10-17T07:00:02.200Z,14.06
2022-10-17T07:01:02.314Z,14.03
2022-10-17T07:02:02.186Z,14.12
2022-10-17T07:03:02.212Z,14.17
2022-10-17T07:04:02.170Z,14.27
2022-10-17T07:05:02.159Z,14.33
2022-10-17T07:06:02.120Z,14.45
2022-10-17T07:07:02.128Z,14.57
2022-10-17T07:08:02.092Z,14.65
2022-10-17T07:09:02.427Z,14.64
2022-10-17T07:10:02.071Z,14.52
2022-10-17T07:11:02.052Z,14.27
2022-10-17T07:12:02.053Z,14.25
2022-10-17T07:13:02.030Z,14.15
2022-10-17T07:14:02.018Z,14.24
2022-10-17T07:15:02.063Z,14.40
2022-10-17T07:16:02.031Z,14.35
2022-10-17T07:17:01.977Z,14.40
2022-10-17T07:18:01.968Z,14.65
2022-10-17T07:19:01.940Z,14.88
2022-10-17T07:20:01.958Z,15.10
2022-10-17T07:21:01.979Z,15.31
2022-10-17T07:22:01.911Z,15.50
2022-10-17T07:23:01.890Z,15.65
2022-10-17T07:24:01.878Z,15.74
2022-10-17T07:25:01.865Z,15.87
2022-10-17T07:26:01.868Z,16.07
2022-10-17T07:27:01.921Z,16.12
2022-10-17T07:28:01.827Z,16.23
2022-10-17T07:29:01.934Z,16.30
2022-10-17T07:30:01.799Z,16.35
2022-10-17T07:31:01.788Z,16.41
2022-10-17T07:32:01.774Z,16.17
2022-10-17T07:33:01.808Z,16.09
2022-10-17T07:34:01.749Z,16.08
2022-10-17T07:35:01.727Z,16.15
2022-10-17T07:36:01.727Z,16.23
2022-10-17T07:37:01.706Z,16.23
2022-10-17T07:38:01.697Z,16.30
2022-10-17T07:39:01.726Z,16.38
2022-10-17T07:40:01.667Z,16.43
2022-10-17T07:41:01.655Z,16.56
2022-10-17T07:42:01.648Z,16.64
2022-10-17T07:43:01.625Z,16.73
2022-10-17T07:44:01.615Z,16.76
2022-10-17T07:45:01.811Z,16.83
2022-10-17T07:46:01.612Z,16.83
2022-10-17T07:47:01.577Z,16.82
2022-10-17T07:48:01.576Z,16.53
2022-10-17T07:49:01.549Z,16.14
2022-10-17T07:50:01.534Z,15.92
2022-10-17T07:51:01.577Z,15.71
2022-10-17T07:52:01.512Z,15.51
2022-10-17T07:53:01.494Z,15.38
2022-10-17T07:54:01.498Z,15.20
2022-10-17T07:55:01.464Z,15.10
2022-10-17T07:56:01.484Z,14.95
2022-10-17T07:57:01.506Z,14.88
2022-10-17T07:58:01.443Z,14.89
2022-10-17T07:59:03.839Z,14.91
2022-10-17T08:00:02.413Z,14.83
2022-10-17T08:02:01.399Z,14.75
2022-10-17T08:03:01.423Z,14.70
2022-10-17T08:04:01.354Z,14.69
2022-10-17T08:05:01.343Z,14.70
2022-10-17T08:06:01.331Z,14.70
2022-10-17T08:07:18.241Z,14.75
2022-10-17T08:08:02.362Z,14.77
2022-10-17T08:09:01.291Z,14.83
2022-10-17T08:10:01.328Z,14.88
2022-10-17T08:11:01.291Z,14.95
2022-10-17T08:12:01.250Z,15.03
2022-10-17T08:13:01.232Z,15.09
2022-10-17T08:14:01.391Z,15.16
2022-10-17T08:15:01.202Z,15.21
2022-10-17T08:16:01.214Z,15.28
2022-10-17T08:17:01.171Z,15.32
2022-10-17T08:18:01.170Z,15.32
2022-10-17T08:19:01.236Z,15.36
2022-10-17T08:20:01.209Z,15.43
2022-10-17T08:21:01.181Z,15.49
2022-10-17T08:22:01.109Z,15.56
2022-10-17T08:23:01.139Z,15.64
2022-10-17T08:24:01.089Z,15.72
2022-10-17T08:25:01.082Z,15.74
2022-10-17T08:26:01.120Z,15.78
2022-10-17T08:27:01.048Z,15.78
2022-10-17T08:28:01.089Z,15.83
2022-10-17T08:29:01.105Z,15.90
2022-10-17T08:30:01.010Z,15.96
2022-10-17T08:31:01.152Z,16.01
2022-10-17T08:32:01.927Z,16.00
2022-10-17T08:33:00.973Z,16.04
2022-10-17T08:34:00.961Z,16.04
2022-10-17T08:35:00.946Z,16.09
2022-10-17T08:36:00.935Z,16.17
2022-10-17T08:37:00.948Z,16.20
2022-10-17T08:38:03.422Z,16.23
2022-10-17T08:39:00.890Z,16.28
2022-10-17T08:40:00.898Z,16.31
2022-10-17T08:41:00.877Z,16.38
2022-10-17T08:42:00.911Z,16.43
2022-10-17T08:43:00.837Z,16.49
2022-10-17T08:44:00.948Z,16.53
2022-10-17T08:45:00.827Z,16.52
2022-10-17T08:46:00.808Z,16.57
2022-10-17T08:47:00.798Z,16.52
2022-10-17T08:48:00.786Z,16.52
2022-10-17T08:49:00.757Z,16.52
2022-10-17T08:50:00.805Z,16.57
2022-10-17T08:51:00.735Z,16.56
2022-10-17T08:52:00.726Z,16.50
2022-10-17T08:53:00.706Z,16.48
2022-10-17T08:54:00.697Z,16.52
2022-10-17T08:55:00.714Z,16.60
2022-10-17T08:56:00.715Z,16.61
2022-10-17T08:57:00.664Z,16.68
2022-10-17T08:58:00.647Z,16.73
2022-10-17T08:59:00.636Z,16.75
2022-10-17T09:00:00.615Z,16.82
2022-10-17T09:01:00.603Z,16.93
2022-10-17T09:02:00.654Z,16.98
2022-10-17T09:03:00.591Z,17.04
2022-10-17T09:04:00.568Z,17.16
2022-10-17T09:05:00.596Z,17.25
2022-10-17T09:06:00.542Z,17.34
2022-10-17T09:07:00.530Z,17.34
2022-10-17T09:08:00.551Z,17.34
2022-10-17T09:09:00.495Z,17.41
2022-10-17T09:10:00.492Z,17.46
2022-10-17T09:11:00.482Z,17.56
2022-10-17T09:12:00.453Z,17.63
2022-10-17T09:13:05.364Z,17.72
2022-10-17T09:14:01.516Z,17.86
2022-10-17T09:15:00.412Z,17.97
2022-10-17T09:16:00.406Z,18.03
2022-10-17T09:17:00.402Z,18.07
2022-10-17T09:18:00.371Z,18.10
2022-10-17T09:19:00.368Z,18.12
2022-10-17T09:20:00.404Z,18.14
2022-10-17T09:21:00.331Z,18.20
2022-10-17T09:22:00.321Z,18.21
2022-10-17T09:23:00.407Z,18.29
2022-10-17T09:24:09.392Z,18.39
2022-10-17T09:25:01.421Z,18.47
2022-10-17T09:26:00.271Z,18.50
2022-10-17T09:27:00.260Z,18.62
2022-10-17T09:28:00.241Z,18.72
2022-10-17T09:29:00.292Z,18.75
2022-10-17T09:30:00.222Z,18.87
2022-10-17T09:31:00.263Z,18.88
2022-10-17T09:32:00.207Z,18.94
2022-10-17T09:33:00.180Z,18.98
2022-10-17T09:34:00.176Z,19.00
2022-10-17T09:35:00.150Z,19.00
2022-10-17T09:36:00.139Z,19.04
2022-10-17T09:37:00.189Z,19.08
2022-10-17T09:38:00.139Z,19.22
2022-10-17T09:39:00.104Z,19.31
2022-10-17T09:40:00.102Z,19.39
2022-10-17T09:41:00.145Z,19.47
2022-10-17T09:42:00.082Z,19.48
2022-10-17T09:43:00.096Z,19.51
2022-10-17T09:44:00.035Z,19.59
2022-10-17T09:45:00.018Z,19.66
2022-10-17T09:46:00.077Z,19.68
2022-10-17T09:46:59.988Z,19.71
2022-10-17T09:48:01.702Z,19.73
2022-10-17T09:49:00.010Z,19.78
2022-10-17T09:50:00.114Z,19.92
2022-10-17T09:51:14.750Z,19.94
2022-10-17T09:52:00.918Z,20.01
2022-10-17T09:52:59.917Z,20.03
2022-10-17T09:53:59.898Z,20.05
2022-10-17T09:54:59.887Z,20.10
2022-10-17T09:56:00.076Z,20.11
2022-10-17T09:56:59.871Z,20.20
2022-10-17T09:57:59.851Z,20.21
2022-10-17T09:58:59.838Z,20.23
2022-10-17T09:59:59.927Z,20.23
2022-10-17T10:00:59.861Z,20.23
2022-10-17T10:01:59.878Z,20.28
2022-10-17T10:02:59.788Z,20.38
2022-10-17T10:03:59.776Z,20.48
2022-10-17T10:05:05.038Z,20.52
2022-10-17T10:06:00.755Z,20.55
2022-10-17T10:06:59.729Z,20.61
2022-10-17T10:07:59.767Z,20.59
2022-10-17T10:08:59.709Z,20.64
2022-10-17T10:09:59.704Z,20.67
2022-10-17T10:10:59.677Z,20.64
2022-10-17T10:11:59.666Z,20.66
2022-10-17T10:12:59.658Z,20.73
2022-10-17T10:13:59.668Z,20.72
2022-10-17T10:14:59.631Z,20.79
2022-10-17T10:15:59.618Z,20.85
2022-10-17T10:16:59.605Z,20.88
2022-10-17T10:17:59.594Z,20.87
2022-10-17T10:18:59.592Z,20.91
2022-10-17T10:19:59.606Z,20.92
2022-10-17T10:20:59.559Z,20.97
2022-10-17T10:21:59.537Z,21.03
2022-10-17T10:22:59.536Z,21.04
2022-10-17T10:23:59.508Z,21.10
2022-10-17T10:24:59.505Z,21.13
2022-10-17T10:25:59.558Z,21.17
2022-10-17T10:26:59.485Z,21.24
2022-10-17T10:28:01.389Z,21.22
2022-10-17T10:28:59.541Z,21.22
2022-10-17T10:29:59.437Z,21.27
2022-10-17T10:30:59.417Z,21.32
2022-10-17T10:31:59.474Z,21.38
2022-10-17T10:32:59.404Z,21.42
2022-10-17T10:33:59.376Z,21.47
2022-10-17T10:34:59.369Z,21.50
2022-10-17T10:35:59.365Z,21.54
2022-10-17T10:36:59.343Z,21.59
2022-10-17T10:37:59.377Z,21.58
2022-10-17T10:39:02.426Z,21.64
2022-10-17T10:40:00.311Z,21.65
2022-10-17T10:40:59.293Z,21.65
2022-10-17T10:41:59.282Z,21.67
2022-10-17T10:43:04.010Z,21.67
2022-10-17T10:44:00.284Z,21.67
2022-10-17T10:44:59.239Z,21.68
2022-10-17T10:45:59.235Z,21.69
2022-10-17T10:46:59.225Z,21.71
2022-10-17T10:47:59.195Z,21.77
2022-10-17T10:48:59.183Z,21.84
2022-10-17T10:49:59.234Z,21.92
2022-10-17T10:50:59.154Z,22.02
2022-10-17T10:51:59.144Z,22.02
2022-10-17T10:52:59.123Z,22.03
2022-10-17T10:53:59.116Z,21.99
2022-10-17T10:54:59.122Z,21.96
2022-10-17T10:55:59.135Z,21.94
2022-10-17T10:56:59.079Z,21.96
2022-10-17T10:57:59.062Z,21.90
2022-10-17T10:58:59.043Z,21.88
2022-10-17T10:59:59.033Z,21.88
2022-10-17T11:00:59.061Z,21.92
2022-10-17T11:01:59.166Z,21.98
2022-10-17T11:03:01.221Z,22.02
2022-10-17T11:03:59.005Z,22.06
2022-10-17T11:04:58.993Z,22.10
2022-10-17T11:05:58.982Z,22.10
2022-10-17T11:06:58.965Z,22.09
2022-10-17T11:07:58.991Z,22.09
2022-10-17T11:08:58.920Z,22.06
2022-10-17T11:09:58.922Z,22.03
2022-10-17T11:10:58.899Z,22.07
2022-10-17T11:11:58.880Z,22.12
2022-10-17T11:12:58.876Z,22.18
2022-10-17T11:13:58.924Z,22.25
2022-10-17T11:14:58.850Z,22.28
2022-10-17T11:15:58.832Z,22.30
2022-10-17T11:16:58.819Z,22.30
2022-10-17T11:17:58.806Z,22.35
2022-10-17T11:18:58.790Z,22.27
2022-10-17T11:19:58.822Z,22.28
2022-10-17T11:20:58.762Z,22.35
2022-10-17T11:21:58.807Z,22.40
2022-10-17T11:22:58.732Z,22.47
2022-10-17T11:23:58.732Z,22.52
2022-10-17T11:24:58.710Z,22.58
2022-10-17T11:25:58.868Z,22.62
2022-10-17T11:26:58.701Z,22.65
2022-10-17T11:28:02.307Z,22.64
2022-10-17T11:28:59.785Z,22.60
2022-10-17T11:29:58.642Z,22.55
2022-10-17T11:30:58.633Z,22.52
2022-10-17T11:31:58.652Z,22.52
2022-10-17T11:32:58.609Z,22.57
2022-10-17T11:33:58.594Z,22.54
2022-10-17T11:34:58.585Z,22.58
2022-10-17T11:35:59.240Z,22.54
2022-10-17T11:36:58.590Z,22.52
2022-10-17T11:37:58.543Z,22.54
2022-10-17T11:38:58.527Z,22.55
2022-10-17T11:39:58.520Z,22.52
2022-10-17T11:40:58.500Z,22.51
2022-10-17T11:42:00.875Z,22.45
2022-10-17T11:42:58.517Z,22.47
2022-10-17T11:43:58.459Z,22.52
2022-10-17T11:44:58.463Z,22.60
2022-10-17T11:45:58.443Z,22.70
2022-10-17T11:46:58.491Z,22.73
2022-10-17T11:47:58.465Z,22.73
2022-10-17T11:48:58.430Z,22.77
2022-10-17T11:49:58.559Z,22.80
2022-10-17T11:52:01.591Z,22.85
2022-10-17T11:52:58.738Z,22.91
2022-10-17T11:53:58.331Z,22.98
2022-10-17T11:54:58.329Z,23.01
2022-10-17T11:55:58.323Z,22.98
2022-10-17T11:56:58.303Z,22.98
2022-10-17T11:57:58.311Z,23.01
2022-10-17T11:58:58.269Z,23.05
2022-10-17T11:59:58.463Z,23.10
2022-10-17T12:00:58.241Z,23.12
2022-10-17T12:01:58.236Z,23.13
2022-10-17T12:02:58.247Z,23.13
2022-10-17T12:03:58.269Z,23.19
2022-10-17T12:04:58.190Z,23.19
2022-10-17T12:05:58.168Z,23.22
2022-10-17T12:06:58.167Z,23.28
2022-10-17T12:07:58.216Z,23.33
2022-10-17T12:08:58.139Z,23.39
2022-10-17T12:09:58.780Z,23.43
2022-10-17T12:10:58.248Z,23.50
2022-10-17T12:11:58.138Z,23.61
2022-10-17T12:12:58.119Z,23.68
2022-10-17T12:13:58.128Z,23.76
2022-10-17T12:14:58.060Z,23.84
2022-10-17T12:15:58.079Z,23.91
2022-10-17T12:16:58.036Z,23.93
2022-10-17T12:17:58.134Z,24.02
2022-10-17T12:18:58.012Z,24.12
2022-10-17T12:19:58.068Z,24.20
2022-10-17T12:20:58.018Z,24.27
2022-10-17T12:21:57.978Z,24.34
2022-10-17T12:22:57.958Z,24.42
2022-10-17T12:23:57.939Z,24.49
2022-10-17T12:24:57.928Z,24.58
2022-10-17T12:26:01.165Z,24.69
2022-10-17T12:26:58.914Z,24.73
2022-10-17T12:27:57.917Z,24.80
2022-10-17T12:28:57.928Z,24.90
2022-10-17T12:29:57.857Z,24.99
2022-10-17T12:30:57.851Z,25.06
2022-10-17T12:31:57.828Z,25.15
2022-10-17T12:33:05.608Z,25.18
2022-10-17T12:33:58.807Z,25.24
2022-10-17T12:34:57.807Z,25.27
2022-10-17T12:35:57.804Z,25.28
2022-10-17T12:36:57.770Z,25.32
2022-10-17T12:37:59.328Z,25.36
2022-10-17T12:38:57.804Z,25.45
2022-10-17T12:39:57.754Z,25.52
2022-10-17T12:40:57.716Z,25.58
2022-10-17T12:41:57.706Z,25.64
2022-10-17T12:42:57.698Z,25.67
2022-10-17T12:43:57.696Z,25.69
2022-10-17T12:44:57.727Z,25.70
2022-10-17T12:45:57.657Z,25.72
2022-10-17T12:46:57.661Z,25.73
2022-10-17T12:47:57.640Z,25.76
2022-10-17T12:48:57.617Z,25.82
2022-10-17T12:49:57.621Z,25.85
2022-10-17T12:51:12.187Z,25.87
2022-10-17T12:51:58.586Z,25.87
2022-10-17T12:52:57.569Z,25.85
2022-10-17T12:53:57.568Z,25.79
2022-10-17T12:55:10.840Z,25.75
2022-10-17T12:55:58.596Z,25.76
2022-10-17T12:56:57.516Z,25.72
2022-10-17T12:57:57.505Z,25.73
2022-10-17T12:58:57.498Z,25.75
2022-10-17T12:59:58.714Z,25.73
2022-10-17T13:01:22.471Z,25.72
2022-10-17T13:01:58.559Z,25.72
2022-10-17T13:02:57.448Z,25.69
2022-10-17T13:03:57.468Z,25.73
2022-10-17T13:04:57.405Z,25.77
2022-10-17T13:05:57.407Z,25.79
2022-10-17T13:06:57.397Z,25.85
2022-10-17T13:07:57.575Z,25.87
2022-10-17T13:09:02.435Z,25.91
2022-10-17T13:09:58.348Z,25.87
2022-10-17T13:10:57.333Z,25.91
2022-10-17T13:11:57.320Z,25.91
2022-10-17T13:12:57.305Z,25.94
2022-10-17T13:13:57.348Z,25.95
2022-10-17T13:14:57.278Z,25.98
2022-10-17T13:15:57.280Z,25.95
2022-10-17T13:16:57.255Z,26.01
2022-10-17T13:17:57.251Z,26.05
2022-10-17T13:18:57.232Z,26.07
2022-10-17T13:19:57.394Z,26.13
2022-10-17T13:20:57.196Z,26.09
2022-10-17T13:21:58.714Z,26.09
2022-10-17T13:22:57.167Z,26.17
2022-10-17T13:23:57.166Z,26.23
2022-10-17T13:24:57.155Z,26.23
2022-10-17T13:25:57.177Z,26.28
2022-10-17T13:26:57.126Z,26.32
2022-10-17T13:27:57.118Z,26.35
2022-10-17T13:28:57.261Z,26.33
2022-10-17T13:29:57.174Z,26.33
2022-10-17T13:30:57.697Z,26.36
2022-10-17T13:31:57.484Z,26.35
2022-10-17T13:32:57.137Z,26.35
2022-10-17T13:33:57.105Z,26.36
2022-10-17T13:34:57.026Z,26.32
2022-10-17T13:36:01.078Z,26.29
2022-10-17T13:36:56.994Z,26.26
2022-10-17T13:37:56.988Z,26.28
2022-10-17T13:38:56.965Z,26.30
2022-10-17T13:40:03.018Z,26.30
2022-10-17T13:41:06.131Z,26.28
2022-10-17T13:41:57.936Z,26.28
2022-10-17T13:42:56.947Z,26.30
2022-10-17T13:43:56.966Z,26.33
2022-10-17T13:44:56.885Z,26.35
2022-10-17T13:45:58.084Z,26.36
2022-10-17T13:46:56.907Z,26.39
2022-10-17T13:47:56.878Z,26.39
2022-10-17T13:48:56.864Z,26.35
2022-10-17T13:49:57.017Z,26.33
2022-10-17T13:51:00.370Z,26.30
2022-10-17T13:51:57.815Z,26.20
2022-10-17T13:52:56.792Z,26.17
2022-10-17T13:53:56.806Z,26.20
2022-10-17T13:54:56.784Z,26.23
2022-10-17T13:56:15.907Z,26.21
2022-10-17T13:56:57.827Z,26.26
2022-10-17T13:57:56.736Z,26.30
2022-10-17T13:58:56.714Z,26.30
2022-10-17T13:59:56.714Z,26.30
2022-10-17T14:00:56.762Z,26.23
2022-10-17T14:01:56.714Z,26.21
2022-10-17T14:02:56.665Z,26.29
2022-10-17T14:04:08.389Z,26.32
2022-10-17T14:05:16.269Z,26.36
2022-10-17T14:05:57.660Z,26.36
2022-10-17T14:06:56.604Z,26.37
2022-10-17T14:08:11.220Z,26.35
2022-10-17T14:08:57.594Z,26.33
2022-10-17T14:09:56.594Z,26.32
2022-10-17T14:10:56.615Z,26.33
2022-10-17T14:11:56.542Z,26.32
2022-10-17T14:12:56.524Z,26.35
2022-10-17T14:13:56.514Z,26.37
2022-10-17T14:15:10.038Z,26.36
2022-10-17T14:15:57.493Z,26.39
2022-10-17T14:16:56.495Z,26.43
2022-10-17T14:17:56.465Z,26.39
2022-10-17T14:18:56.471Z,26.39
2022-10-17T14:20:14.199Z,26.35
2022-10-17T14:21:37.232Z,26.32
2022-10-17T14:21:57.444Z,26.29
2022-10-17T14:23:57.434Z,26.25
2022-10-17T14:25:00.232Z,26.25
2022-10-17T14:25:57.366Z,26.23
2022-10-17T14:26:56.375Z,26.23
2022-10-17T14:27:56.336Z,26.10
2022-10-17T14:28:56.362Z,26.12
2022-10-17T14:29:56.403Z,26.06
2022-10-17T14:30:57.532Z,26.06
2022-10-17T14:31:56.283Z,26.01
2022-10-17T14:32:56.277Z,25.98
2022-10-17T14:33:56.333Z,25.94
2022-10-17T14:35:05.522Z,25.90
2022-10-17T14:35:57.303Z,25.88
2022-10-17T14:36:56.224Z,25.82
2022-10-17T14:37:56.215Z,25.73
2022-10-17T14:38:56.196Z,25.65
2022-10-17T14:39:56.185Z,25.64
2022-10-17T14:41:09.612Z,25.58
2022-10-17T14:42:00.752Z,25.55
2022-10-17T14:42:57.152Z,25.51
2022-10-17T14:43:56.167Z,25.46
2022-10-17T14:44:56.112Z,25.45
2022-10-17T14:45:56.166Z,25.45
2022-10-17T14:46:56.102Z,25.45
2022-10-17T14:47:56.232Z,25.42
2022-10-17T14:48:56.084Z,25.32
2022-10-17T14:49:56.053Z,25.25
2022-10-17T14:50:56.033Z,25.14
2022-10-17T14:51:57.029Z,25.13
2022-10-17T14:52:57.083Z,25.14
2022-10-17T14:53:56.004Z,25.09
2022-10-17T14:54:55.981Z,25.10
2022-10-17T14:55:55.979Z,25.09
2022-10-17T14:56:55.975Z,24.98
2022-10-17T14:57:55.950Z,24.90
2022-10-17T14:58:55.993Z,24.87
2022-10-17T14:59:56.065Z,24.88
2022-10-17T15:00:55.912Z,24.91
2022-10-17T15:01:55.909Z,24.90
2022-10-17T15:02:55.914Z,24.91
2022-10-17T15:03:55.872Z,24.83
2022-10-17T15:04:55.909Z,24.84
2022-10-17T15:05:55.849Z,24.81
2022-10-17T15:06:55.831Z,24.77
2022-10-17T15:07:55.813Z,24.71
2022-10-17T15:08:55.805Z,24.68
2022-10-17T15:09:55.801Z,24.68
2022-10-17T15:10:55.825Z,24.71
2022-10-17T15:11:55.764Z,24.71
2022-10-17T15:12:59.309Z,24.68
2022-10-17T15:13:56.768Z,24.64
2022-10-17T15:14:55.723Z,24.60
2022-10-17T15:15:55.721Z,24.50
2022-10-17T15:16:55.750Z,24.43
2022-10-17T15:17:55.701Z,24.35
2022-10-17T15:18:55.677Z,24.35
2022-10-17T15:19:55.661Z,24.32
2022-10-17T15:21:04.768Z,24.28
2022-10-17T15:21:56.641Z,24.27
2022-10-17T15:22:55.626Z,24.24
2022-10-17T15:23:55.623Z,24.21
2022-10-17T15:24:55.590Z,24.22
2022-10-17T15:25:55.590Z,24.25
2022-10-17T15:26:55.620Z,24.24
2022-10-17T15:27:55.560Z,24.25
2022-10-17T15:28:55.572Z,24.24
2022-10-17T15:29:55.530Z,24.22
2022-10-17T15:30:55.551Z,24.15
2022-10-17T15:31:55.517Z,24.09
2022-10-17T15:32:55.500Z,24.02
2022-10-17T15:33:55.483Z,23.94
2022-10-17T15:34:55.460Z,23.88
2022-10-17T15:35:55.543Z,23.95
2022-10-17T15:36:55.441Z,24.06
2022-10-17T15:37:55.434Z,24.20
2022-10-17T15:38:55.410Z,24.30
2022-10-17T15:39:55.431Z,24.43
2022-10-17T15:40:55.402Z,24.43
2022-10-17T15:41:55.571Z,24.52
2022-10-17T15:42:55.361Z,24.68
2022-10-17T15:43:55.399Z,24.78
2022-10-17T15:44:55.422Z,24.78
2022-10-17T15:45:55.330Z,24.85
2022-10-17T15:46:55.309Z,24.93
2022-10-17T15:47:55.375Z,24.84
2022-10-17T15:48:55.290Z,24.71
2022-10-17T15:49:55.340Z,24.64
2022-10-17T15:50:55.250Z,24.53
2022-10-17T15:51:55.495Z,24.40
2022-10-17T15:52:55.240Z,24.25
2022-10-17T15:53:55.260Z,24.08
2022-10-17T15:54:56.499Z,23.93
2022-10-17T15:55:55.220Z,23.66
2022-10-17T15:56:55.239Z,23.48
2022-10-17T15:57:55.180Z,23.38
2022-10-17T15:58:55.171Z,23.23
2022-10-17T15:59:55.139Z,23.09
2022-10-17T16:00:55.454Z,23.00
2022-10-17T16:01:55.128Z,22.88
2022-10-17T16:02:55.150Z,22.70
2022-10-17T16:03:55.090Z,22.49
2022-10-17T16:04:55.091Z,22.37
2022-10-17T16:05:55.069Z,22.31
2022-10-17T16:06:55.058Z,22.18
2022-10-17T16:07:55.038Z,22.06
2022-10-17T16:08:56.179Z,21.90
2022-10-17T16:09:55.015Z,21.75
2022-10-17T16:10:54.994Z,21.62
2022-10-17T16:11:55.100Z,21.50
2022-10-17T16:12:54.972Z,21.35
2022-10-17T16:13:54.965Z,21.27
2022-10-17T16:14:55.543Z,21.24
2022-10-17T16:15:54.970Z,21.16
2022-10-17T16:16:54.908Z,21.06
2022-10-17T16:17:54.908Z,20.98
2022-10-17T16:18:54.888Z,20.95
2022-10-17T16:19:54.878Z,20.91
2022-10-17T16:20:54.943Z,20.88
2022-10-17T16:21:54.871Z,20.82
2022-10-17T16:22:54.837Z,20.72
2022-10-17T16:23:54.828Z,20.59
2022-10-17T16:24:54.837Z,20.48
2022-10-17T16:25:54.798Z,20.42
2022-10-17T16:26:54.988Z,20.35
2022-10-17T16:27:54.774Z,20.32
2022-10-17T16:28:54.811Z,20.28
2022-10-17T16:29:54.760Z,20.24
2022-10-17T16:30:54.728Z,20.20
2022-10-17T16:31:54.745Z,20.16
2022-10-17T16:32:54.734Z,20.11
2022-10-17T16:33:54.697Z,20.10
2022-10-17T16:34:54.687Z,20.08
2022-10-17T16:35:54.673Z,20.05
2022-10-17T16:36:54.707Z,19.99
2022-10-17T16:37:54.650Z,19.88
2022-10-17T16:38:54.633Z,19.77
2022-10-17T16:39:54.629Z,19.63
2022-10-17T16:40:54.597Z,19.55
2022-10-17T16:41:57.694Z,19.47
2022-10-17T16:42:54.640Z,19.33
2022-10-17T16:43:54.566Z,19.25
2022-10-17T16:44:54.552Z,19.14
2022-10-17T16:45:54.551Z,19.04
2022-10-17T16:46:54.536Z,19.02
2022-10-17T16:47:54.526Z,18.98
2022-10-17T16:48:54.556Z,18.92
2022-10-17T16:49:54.495Z,18.88
2022-10-17T16:50:54.495Z,18.84
2022-10-17T16:51:54.469Z,18.76
2022-10-17T16:52:54.496Z,18.67
2022-10-17T16:53:54.454Z,18.65
2022-10-17T16:54:54.502Z,18.57
2022-10-17T16:55:54.406Z,18.51
2022-10-17T16:56:54.424Z,18.45
2022-10-17T16:57:54.388Z,18.41
2022-10-17T16:58:54.374Z,18.35
2022-10-17T16:59:54.364Z,18.32
2022-10-17T17:00:54.726Z,18.27